Time;durP1;ratioP1;P1;durP2;ratioP2;P2;SDS_P1;SDS_P2;PMS_P1;PMS_P2;Temp;Humidity;BMP_temperature;BMP_pressure;BME280_temperature;BME280_humidity;BME280_pressure;Samples;Min_cycle;Max_cycle;Signal;HPM_P1;HPM_P2
2022/08/31 00:06:22;;;;;;;8.43;5.20;;;;;;;19.36;53.92;100491.92;1716580;82;20632;-52
2022/08/31 00:08:48;;;;;;;7.17;5.00;;;;;;;19.29;54.02;100496.31;1710508;82;21004;-53
2022/08/31 00:11:15;;;;;;;11.97;5.67;;;;;;;19.26;54.16;100493.99;1722998;82;21234;-53
2022/08/31 00:13:45;;;;;;;8.30;5.05;;;;;;;19.26;54.24;100493.48;1719461;82;21004;-53
2022/08/31 00:16:11;;;;;;;8.28;5.22;;;;;;;19.23;54.40;100495.67;1715100;82;21110;-53
2022/08/31 00:18:38;;;;;;;10.98;6.03;;;;;;;19.20;54.62;100496.02;1734844;82;21004;-52
2022/08/31 00:21:05;;;;;;;10.50;6.15;;;;;;;19.16;54.73;100495.55;1727136;82;21059;-52
2022/08/31 00:23:33;;;;;;;8.55;5.70;;;;;;;19.16;54.83;100501.39;1736756;80;21157;-52
2022/08/31 00:26:00;;;;;;;10.30;6.05;;;;;;;19.15;54.85;100503.24;1668973;84;21096;-52
2022/08/31 00:28:27;;;;;;;7.78;5.50;;;;;;;19.11;55.21;100501.44;1688390;84;21034;-52
2022/08/31 00:30:53;;;;;;;12.47;5.45;;;;;;;19.06;55.47;100500.28;1687128;83;21567;-52
2022/08/31 00:33:20;;;;;;;8.90;4.97;;;;;;;19.03;55.84;100502.81;1690072;84;21556;-53
2022/08/31 00:35:46;;;;;;;7.65;5.33;;;;;;;19.02;56.09;100501.66;1671069;83;21225;-52
2022/08/31 00:38:13;;;;;;;10.72;6.20;;;;;;;19.04;56.24;100499.63;1668347;83;21016;-53
2022/08/31 00:40:43;;;;;;;9.30;5.80;;;;;;;19.08;56.26;100506.27;1670459;83;21066;-53
2022/08/31 00:43:10;;;;;;;9.95;5.08;;;;;;;19.08;56.15;100507.11;1664557;83;21162;-53
2022/08/31 00:45:37;;;;;;;9.63;5.53;;;;;;;19.09;56.09;100506.09;1679816;84;21051;-52
2022/08/31 00:48:03;;;;;;;10.72;5.50;;;;;;;19.09;56.02;100503.42;1687219;84;21583;-52
2022/08/31 00:50:30;;;;;;;8.38;5.90;;;;;;;19.09;56.11;100498.09;1671437;83;21055;-53
2022/08/31 00:52:59;;;;;;;7.85;5.67;;;;;;;19.08;56.17;100504.45;1689292;83;21122;-52
2022/08/31 00:55:33;;;;;;;8.73;5.75;;;;;;;19.09;56.20;100506.09;1687309;83;21070;-52
2022/08/31 00:58:03;;;;;;;9.20;5.55;;;;;;;19.12;56.24;100495.59;1690153;84;21150;-52
2022/08/31 01:00:30;;;;;;;8.70;5.33;;;;;;;19.13;56.20;100497.23;1677336;83;21612;-52
2022/08/31 01:02:58;;;;;;;9.18;5.70;;;;;;;19.16;56.30;100505.40;1683393;84;21012;-52
2022/08/31 01:05:25;;;;;;;8.08;5.95;;;;;;;19.17;56.62;100503.06;1686595;84;21051;-52
2022/08/31 01:07:52;;;;;;;9.03;6.00;;;;;;;19.17;56.76;100500.41;1671391;84;21587;-53
2022/08/31 01:10:21;;;;;;;8.08;5.62;;;;;;;19.15;56.78;100497.91;1680254;83;21042;-52
2022/08/31 01:12:47;;;;;;;7.95;5.30;;;;;;;19.10;56.94;100499.77;1690817;83;21763;-53
2022/08/31 01:15:14;;;;;;;9.08;6.28;;;;;;;19.08;56.91;100501.78;1678507;83;21127;-53
2022/08/31 01:17:42;;;;;;;9.65;6.12;;;;;;;19.06;56.89;100501.13;1673205;83;21516;-52
2022/08/31 01:20:30;;;;;;;10.63;5.83;;;;;;;19.02;56.81;100502.98;1687554;83;21675;-53
2022/08/31 01:23:11;;;;;;;9.25;5.67;;;;;;;18.99;56.82;100500.66;1682720;83;21078;-53
2022/08/31 01:25:41;;;;;;;9.05;6.10;;;;;;;18.95;56.93;100500.19;1675903;83;21098;-53
2022/08/31 01:28:08;;;;;;;10.15;6.08;;;;;;;18.90;57.08;100503.88;1681004;85;21044;-53
2022/08/31 01:30:36;;;;;;;8.58;5.67;;;;;;;18.85;57.38;100502.24;1674190;85;21096;-52
2022/08/31 01:33:03;;;;;;;9.10;5.28;;;;;;;18.81;57.92;100502.21;1680905;85;21144;-55
2022/08/31 01:35:30;;;;;;;8.48;5.65;;;;;;;18.81;58.17;100500.88;1671454;83;21126;-53
2022/08/31 01:37:57;;;;;;;8.75;5.95;;;;;;;18.87;58.10;100505.55;1673862;85;21162;-53
2022/08/31 01:40:36;;;;;;;8.93;5.95;;;;;;;18.89;57.91;100507.03;1708281;82;21063;-53
2022/08/31 01:43:02;;;;;;;9.73;4.60;;;;;;;18.85;57.71;100507.58;1712823;82;21042;-53
2022/08/31 01:45:29;;;;;;;8.48;5.35;;;;;;;18.79;57.49;100509.56;1727999;82;21115;-52
2022/08/31 01:47:58;;;;;;;8.63;5.67;;;;;;;18.70;57.46;100503.44;1724770;82;21071;-53
2022/08/31 01:50:25;;;;;;;9.68;5.87;;;;;;;18.61;57.50;100507.98;1717921;82;22124;-53
2022/08/31 01:52:51;;;;;;;9.38;5.50;;;;;;;18.53;57.78;100506.67;1730125;82;21044;-53
2022/08/31 01:55:19;;;;;;;9.25;5.58;;;;;;;18.44;58.03;100507.20;1719567;82;21091;-53
2022/08/31 01:57:47;;;;;;;13.00;6.20;;;;;;;18.37;58.28;100508.39;1711560;82;21098;-52
2022/08/31 02:00:20;;;;;;;8.95;5.95;;;;;;;18.29;58.44;100502.23;1707827;82;21146;-52
2022/08/31 02:02:47;;;;;;;9.03;6.17;;;;;;;18.18;58.66;100499.43;1712104;82;21146;-53
2022/08/31 02:05:14;;;;;;;8.93;5.60;;;;;;;18.10;58.74;100498.11;1699897;82;21043;-52
2022/08/31 02:07:41;;;;;;;10.13;6.05;;;;;;;18.03;58.82;100506.45;1694977;82;21481;-52
2022/08/31 02:10:08;;;;;;;9.25;6.03;;;;;;;17.95;58.96;100496.63;1696910;82;21059;-52
2022/08/31 02:12:36;;;;;;;9.85;5.60;;;;;;;17.90;59.15;100498.46;1698439;83;21040;-52
2022/08/31 02:15:04;;;;;;;11.15;6.58;;;;;;;17.85;59.24;100494.11;1711421;82;21229;-53
2022/08/31 02:17:31;;;;;;;8.68;5.75;;;;;;;17.83;59.42;100493.45;1715893;82;21064;-52
2022/08/31 02:19:58;;;;;;;8.48;5.47;;;;;;;17.82;59.65;100490.48;1733937;81;21139;-53
2022/08/31 02:22:24;;;;;;;9.73;6.15;;;;;;;17.83;59.86;100488.95;1666998;84;21544;-52
2022/08/31 02:24:52;;;;;;;11.15;6.00;;;;;;;17.88;60.04;100487.16;1666616;84;21141;-52
2022/08/31 02:27:20;;;;;;;11.25;6.00;;;;;;;17.93;60.16;100491.98;1743548;82;21021;-52
2022/08/31 02:29:46;;;;;;;10.88;6.85;;;;;;;17.91;60.51;100481.50;1729541;81;21568;-52
2022/08/31 02:32:13;;;;;;;9.85;6.45;;;;;;;17.91;60.62;100478.02;1718344;80;21678;-52
2022/08/31 02:34:40;;;;;;;10.95;6.22;;;;;;;17.89;60.67;100483.51;1730915;81;21058;-52
2022/08/31 02:37:07;;;;;;;9.58;6.70;;;;;;;17.85;60.48;100481.31;1663766;84;21073;-52
2022/08/31 02:39:34;;;;;;;9.83;6.42;;;;;;;17.81;60.38;100480.81;1707774;82;21269;-52
2022/08/31 02:42:00;;;;;;;9.15;6.72;;;;;;;17.77;60.37;100482.14;1731704;81;21027;-52
2022/08/31 02:44:27;;;;;;;9.48;6.12;;;;;;;17.72;60.49;100485.80;1666884;84;21116;-52
2022/08/31 02:46:54;;;;;;;11.22;6.50;;;;;;;17.68;60.63;100485.81;1664166;83;21608;-52
2022/08/31 02:49:22;;;;;;;10.28;6.00;;;;;;;17.68;60.90;100488.47;1678730;83;21047;-53
2022/08/31 02:51:49;;;;;;;11.83;6.12;;;;;;;17.69;61.28;100490.15;1684481;84;21068;-52
2022/08/31 02:54:15;;;;;;;8.48;5.67;;;;;;;17.75;61.40;100490.31;1692050;84;21095;-53
2022/08/31 02:56:43;;;;;;;11.70;6.08;;;;;;;17.82;61.40;100495.80;1725996;81;21087;-52
2022/08/31 02:59:10;;;;;;;9.08;5.95;;;;;;;17.85;61.42;100494.11;1672908;85;21046;-53
2022/08/31 03:01:38;;;;;;;10.05;6.08;;;;;;;17.89;61.27;100494.16;1730572;81;21072;-52
2022/08/31 03:04:06;;;;;;;12.33;5.33;;;;;;;17.91;61.28;100491.33;1730083;81;21155;-53
2022/08/31 03:06:32;;;;;;;7.70;5.70;;;;;;;17.93;61.39;100487.98;1727916;81;21059;-53
2022/08/31 03:09:01;;;;;;;11.45;6.28;;;;;;;17.92;61.31;100486.31;1719509;82;21115;-52
2022/08/31 03:11:29;;;;;;;8.80;5.67;;;;;;;17.93;61.35;100486.66;1660585;84;21299;-53
2022/08/31 03:13:56;;;;;;;8.98;5.60;;;;;;;17.93;61.34;100491.98;1660224;85;21048;-53
2022/08/31 03:16:23;;;;;;;8.83;5.75;;;;;;;17.92;61.24;100489.83;1668121;84;21853;-53
2022/08/31 03:18:50;;;;;;;7.35;5.20;;;;;;;17.93;61.05;100495.98;1735780;81;21048;-52
2022/08/31 03:21:17;;;;;;;8.93;5.42;;;;;;;17.93;60.87;100497.30;1722058;82;21557;-53
2022/08/31 03:23:45;;;;;;;8.43;5.67;;;;;;;17.96;60.86;100497.80;1668900;85;21128;-53
2022/08/31 03:26:11;;;;;;;9.58;5.92;;;;;;;17.99;60.99;100494.80;1671949;83;21048;-52
2022/08/31 03:28:38;;;;;;;10.03;5.90;;;;;;;17.95;61.16;100497.45;1685604;84;21601;-52
2022/08/31 03:31:08;;;;;;;8.93;6.17;;;;;;;17.91;61.34;100494.81;1687601;84;21051;-52
2022/08/31 03:33:35;;;;;;;10.45;6.20;;;;;;;17.87;61.46;100490.84;1668607;84;21194;-52
2022/08/31 03:36:04;;;;;;;10.60;6.30;;;;;;;17.85;61.56;100495.95;1687851;84;21067;-52
2022/08/31 03:38:31;;;;;;;9.78;5.70;;;;;;;17.83;61.73;100497.45;1687660;84;21154;-53
2022/08/31 03:40:57;;;;;;;10.08;5.95;;;;;;;17.81;61.59;100496.28;1685325;84;21307;-53
2022/08/31 03:43:24;;;;;;;8.05;5.65;;;;;;;17.77;61.53;100498.11;1692217;82;21060;-53
2022/08/31 03:45:51;;;;;;;6.95;4.70;;;;;;;17.73;61.51;100502.93;1695712;84;21037;-52
2022/08/31 03:48:18;;;;;;;12.40;6.20;;;;;;;17.71;61.67;100502.78;1698302;84;21056;-52
2022/08/31 03:50:45;;;;;;;7.58;4.60;;;;;;;17.75;61.60;100506.77;1692185;83;21023;-52
2022/08/31 03:53:16;;;;;;;8.45;6.00;;;;;;;17.77;61.58;100500.28;1673594;84;21160;-53
2022/08/31 03:55:43;;;;;;;9.05;5.78;;;;;;;17.77;61.59;100510.94;1668830;84;21095;-52
2022/08/31 03:58:10;;;;;;;9.95;5.60;;;;;;;17.78;61.59;100506.44;1678997;84;21568;-52
2022/08/31 04:00:38;;;;;;;7.03;4.78;;;;;;;17.78;61.54;100512.58;1658516;84;21548;-53
2022/08/31 04:03:06;;;;;;;8.20;5.35;;;;;;;17.78;61.67;100510.42;1689017;84;21010;-52
2022/08/31 04:05:37;;;;;;;10.68;5.28;;;;;;;17.80;61.66;100514.59;1687514;83;21556;-53
2022/08/31 04:08:22;;;;;;;8.73;5.87;;;;;;;17.81;61.70;100517.58;1687061;83;21356;-53
2022/08/31 04:10:52;;;;;;;7.87;5.03;;;;;;;17.79;61.74;100515.58;1679743;84;21056;-53
2022/08/31 04:13:22;;;;;;;11.15;5.03;;;;;;;17.82;61.88;100518.42;1685720;83;21555;-52
2022/08/31 04:16:11;;;;;;;10.88;5.55;;;;;;;17.92;61.75;100516.93;1687804;84;21058;-53
2022/08/31 04:18:55;;;;;;;9.98;5.95;;;;;;;18.01;61.49;100522.59;1690224;84;21796;-53
2022/08/31 04:21:24;;;;;;;8.93;5.65;;;;;;;17.99;61.40;100517.44;1684955;84;22314;-52
2022/08/31 04:23:52;;;;;;;10.38;6.20;;;;;;;17.96;61.60;100519.61;1683820;83;21086;-52
2022/08/31 04:26:32;;;;;;;9.78;5.83;;;;;;;17.94;61.75;100518.44;1681001;83;21051;-53
2022/08/31 04:28:59;;;;;;;8.50;5.50;;;;;;;17.92;61.92;100518.26;1689979;84;21185;-52
2022/08/31 04:31:26;;;;;;;9.28;5.22;;;;;;;17.88;62.13;100519.61;1683688;84;22157;-54
2022/08/31 04:33:55;;;;;;;7.58;4.75;;;;;;;17.87;62.33;100523.26;1686025;83;21080;-54
2022/08/31 04:36:24;;;;;;;9.35;4.78;;;;;;;17.90;62.33;100525.08;1686723;84;21067;-53
2022/08/31 04:38:55;;;;;;;8.60;5.37;;;;;;;17.98;62.04;100526.41;1690889;83;21575;-54
2022/08/31 04:41:23;;;;;;;9.23;5.20;;;;;;;18.04;61.82;100525.41;1677052;84;21119;-51
2022/08/31 04:43:53;;;;;;;7.37;4.92;;;;;;;18.04;61.82;100525.41;1643542;85;21871;-51
2022/08/31 04:46:19;;;;;;;8.15;5.33;;;;;;;18.04;61.83;100521.41;1679330;83;21054;-52
2022/08/31 04:48:47;;;;;;;9.35;5.12;;;;;;;18.04;62.02;100528.92;1685112;83;21044;-52
2022/08/31 04:51:23;;;;;;;10.60;5.70;;;;;;;18.06;62.14;100533.57;1736313;81;21091;-51
2022/08/31 04:53:50;;;;;;;10.45;5.20;;;;;;;18.06;62.40;100529.58;1737167;80;21012;-52
2022/08/31 04:56:20;;;;;;;6.78;4.67;;;;;;;18.06;62.40;100530.09;1732989;80;21210;-52
2022/08/31 04:58:55;;;;;;;9.43;4.95;;;;;;;18.08;62.31;100529.41;1736563;82;21063;-54
2022/08/31 05:01:24;;;;;;;7.53;4.87;;;;;;;18.15;62.36;100531.72;1729148;80;21102;-52
2022/08/31 05:03:59;;;;;;;8.20;4.90;;;;;;;18.23;62.08;100528.23;1721696;82;21067;-53
2022/08/31 05:06:29;;;;;;;8.00;4.62;;;;;;;18.25;61.94;100523.05;1722678;82;21035;-53
2022/08/31 05:09:00;;;;;;;8.60;4.60;;;;;;;18.28;62.05;100526.70;1679587;85;21228;-53
2022/08/31 05:11:27;;;;;;;8.78;4.72;;;;;;;18.32;62.12;100524.02;1679831;83;21004;-53
2022/08/31 05:13:58;;;;;;;9.25;5.25;;;;;;;18.40;61.88;100534.34;1682846;83;21055;-53
2022/08/31 05:16:25;;;;;;;8.73;5.22;;;;;;;18.46;61.84;100528.31;1696413;83;21618;-53
2022/08/31 05:18:52;;;;;;;11.63;4.75;;;;;;;18.50;61.78;100526.48;1697096;83;21032;-53
2022/08/31 05:21:27;;;;;;;10.82;4.75;;;;;;;18.57;61.79;100533.29;1685680;84;21513;-53
2022/08/31 05:23:56;;;;;;;11.03;4.87;;;;;;;18.68;61.59;100530.27;1684104;83;21074;-53
2022/08/31 05:26:29;;;;;;;8.20;4.72;;;;;;;18.78;61.32;100527.40;1689702;83;21158;-53
2022/08/31 05:28:57;;;;;;;6.58;4.15;;;;;;;18.84;61.19;100528.05;1670063;85;21533;-53
2022/08/31 05:33:40;;;;;;;11.18;5.10;;;;;;;19.05;60.86;100526.13;1803156;79;22688;-53
2022/08/31 05:36:08;;;;;;;9.60;5.20;;;;;;;19.16;60.35;100528.06;1775614;78;21341;-53
2022/08/31 05:38:35;;;;;;;10.00;5.28;;;;;;;19.21;60.47;100528.37;1772101;78;21148;-53
2022/08/31 05:41:02;;;;;;;8.20;5.22;;;;;;;19.24;60.53;100526.69;1782711;78;21065;-53
2022/08/31 05:43:30;;;;;;;8.48;4.97;;;;;;;19.24;60.58;100530.18;1772419;80;21089;-53
2022/08/31 05:45:57;;;;;;;7.87;4.28;;;;;;;19.28;60.58;100527.98;1772432;80;21604;-53
2022/08/31 05:48:24;;;;;;;7.55;4.50;;;;;;;19.37;60.50;100528.28;1781008;80;21014;-53
2022/08/31 05:50:51;;;;;;;7.33;4.15;;;;;;;19.49;60.26;100524.69;1767692;79;21910;-53
2022/08/31 05:53:17;;;;;;;7.62;4.03;;;;;;;19.61;59.86;100524.59;1783494;80;21006;-53
2022/08/31 05:55:44;;;;;;;6.97;4.30;;;;;;;19.72;59.77;100525.17;1780037;78;21086;-53
2022/08/31 05:58:11;;;;;;;11.08;5.10;;;;;;;19.76;59.19;100526.02;1775437;79;21116;-53
2022/08/31 06:00:38;;;;;;;8.88;4.50;;;;;;;19.82;59.27;100533.80;1772399;78;21133;-53
2022/08/31 06:03:07;;;;;;;7.08;4.08;;;;;;;19.88;59.34;100529.59;1712414;81;21767;-53
2022/08/31 06:05:34;;;;;;;7.65;4.80;;;;;;;19.92;59.33;100531.73;1770055;79;21057;-53
2022/08/31 06:08:02;;;;;;;7.58;4.87;;;;;;;20.02;58.74;100534.12;1782322;79;21002;-53
2022/08/31 06:10:31;;;;;;;7.47;4.40;;;;;;;20.09;58.60;100529.73;1783363;80;21102;-53
2022/08/31 06:13:00;;;;;;;9.83;4.78;;;;;;;20.17;58.49;100528.81;1726511;81;20923;-53
2022/08/31 06:15:27;;;;;;;7.80;4.83;;;;;;;20.21;58.18;100526.94;1712194;82;21198;-53
2022/08/31 06:17:55;;;;;;;6.67;3.85;;;;;;;20.27;58.16;100522.69;1719199;81;21022;-53
2022/08/31 06:20:23;;;;;;;6.37;3.90;;;;;;;20.37;58.22;100521.09;1732402;81;21105;-53
2022/08/31 06:22:50;;;;;;;8.53;4.37;;;;;;;20.52;57.88;100517.91;1727049;81;21536;-53
2022/08/31 06:25:23;;;;;;;6.60;4.00;;;;;;;20.66;57.65;100517.63;1740359;81;21464;-53
2022/08/31 06:27:49;;;;;;;7.25;4.10;;;;;;;20.76;57.21;100513.31;1753611;81;21340;-53
2022/08/31 06:30:20;;;;;;;7.92;3.52;;;;;;;20.88;57.15;100516.34;1735753;81;21535;-53
2022/08/31 06:32:46;;;;;;;6.25;3.90;;;;;;;21.00;56.61;100520.69;1725461;80;21106;-53
2022/08/31 06:35:13;;;;;;;6.40;3.95;;;;;;;21.08;56.33;100519.25;1724027;82;21012;-54
2022/08/31 06:37:57;;;;;;;5.92;4.03;;;;;;;21.12;56.48;100517.87;1613369;86;21087;-53
2022/08/31 06:40:28;;;;;;;8.90;4.10;;;;;;;21.21;56.20;100522.07;1719003;80;21379;-53
2022/08/31 06:43:12;;;;;;;7.15;3.65;;;;;;;21.28;56.20;100518.13;1707955;82;21773;-53
2022/08/31 06:45:49;;;;;;;5.58;2.83;;;;;;;21.37;56.06;100524.18;1751699;80;21101;-53
2022/08/31 06:48:33;;;;;;;7.55;2.80;;;;;;;21.41;55.39;100527.63;1762439;80;21101;-53
2022/08/31 06:51:01;;;;;;;4.50;2.40;;;;;;;21.42;54.92;100532.50;1767265;79;21050;-53
2022/08/31 06:53:29;;;;;;;5.33;2.40;;;;;;;21.41;55.10;100528.97;1766703;78;21127;-53
2022/08/31 06:56:13;;;;;;;5.33;2.70;;;;;;;21.45;54.79;100538.78;1771667;80;21535;-54
2022/08/31 06:58:48;;;;;;;7.85;2.65;;;;;;;21.48;54.63;100531.75;1755856;80;21086;-53
2022/08/31 07:01:23;;;;;;;5.50;2.95;;;;;;;21.51;54.41;100525.50;1757830;79;21564;-53
2022/08/31 07:03:52;;;;;;;5.10;2.67;;;;;;;21.58;54.23;100529.58;1770399;79;21042;-54
2022/08/31 07:06:20;;;;;;;5.37;2.80;;;;;;;21.64;54.00;100527.48;1767553;80;21420;-54
2022/08/31 07:10:19;;;;;;;5.65;2.80;;;;;;;21.84;53.55;100522.30;1856993;74;23494;-55
2022/08/31 07:12:46;;;;;;;6.78;3.17;;;;;;;21.91;53.80;100525.55;1860220;75;21132;-55
2022/08/31 07:15:13;;;;;;;7.47;3.00;;;;;;;21.97;53.19;100531.45;1822915;77;21221;-54
2022/08/31 07:17:41;;;;;;;5.33;2.98;;;;;;;22.02;52.58;100529.87;1815932;76;21019;-54
2022/08/31 07:20:10;;;;;;;6.25;3.25;;;;;;;22.10;52.54;100524.86;1875329;76;21037;-54
2022/08/31 07:22:37;;;;;;;5.55;2.72;;;;;;;22.16;52.41;100522.75;1859745;76;21062;-53
2022/08/31 07:25:09;;;;;;;8.75;2.85;;;;;;;22.24;51.29;100529.79;1824031;75;21100;-54
2022/08/31 07:27:36;;;;;;;7.17;3.10;;;;;;;22.28;51.00;100521.72;1849825;75;21289;-54
2022/08/31 07:30:04;;;;;;;16.32;3.30;;;;;;;22.36;51.50;100527.42;1851099;75;20954;-54
2022/08/31 07:32:33;;;;;;;8.63;2.90;;;;;;;22.45;51.23;100516.88;1856720;75;20973;-54
2022/08/31 07:35:00;;;;;;;5.03;2.55;;;;;;;22.57;51.41;100514.45;1844250;75;21064;-54
2022/08/31 07:43:03;;;;;;;4.85;2.22;;;;;;;22.78;49.13;100521.06;1843623;75;21021;-53
2022/08/31 07:45:31;;;;;;;5.65;2.35;;;;;;;22.80;49.70;100524.37;1825263;77;21033;-53
2022/08/31 07:47:59;;;;;;;5.05;2.40;;;;;;;22.81;49.00;100523.35;1830402;75;21049;-53
2022/08/31 07:50:30;;;;;;;4.37;1.90;;;;;;;22.77;48.89;100516.71;1843863;75;21045;-54
2022/08/31 07:53:07;;;;;;;4.85;2.15;;;;;;;22.74;48.97;100520.31;1803231;75;21183;-53
2022/08/31 07:55:46;;;;;;;5.50;2.02;;;;;;;22.73;48.63;100520.84;1838288;76;20998;-54
2022/08/31 07:58:33;;;;;;;5.08;1.85;;;;;;;22.68;48.28;100523.29;1839801;75;21025;-54
2022/08/31 08:01:01;;;;;;;5.62;2.17;;;;;;;22.67;48.23;100513.58;1849070;75;21057;-54
2022/08/31 08:03:29;;;;;;;3.80;1.62;;;;;;;22.73;48.44;100507.42;1846042;76;21703;-54
2022/08/31 08:06:15;;;;;;;5.22;2.00;;;;;;;22.85;48.18;100506.83;1831753;75;21225;-55
2022/08/31 08:08:44;;;;;;;4.83;1.62;;;;;;;22.99;48.01;100520.62;1840737;75;21950;-54
2022/08/31 08:11:17;;;;;;;5.70;2.58;;;;;;;23.08;47.99;100499.33;1825759;77;21052;-53
2022/08/31 08:14:04;;;;;;;5.00;2.00;;;;;;;23.25;48.52;100498.92;1830574;76;21535;-54
2022/08/31 08:16:49;;;;;;;10.23;2.65;;;;;;;23.39;48.04;100497.94;1820592;77;21565;-54
2022/08/31 08:19:21;;;;;;;5.17;2.12;;;;;;;23.44;46.99;100495.46;1834588;76;21088;-54
2022/08/31 08:21:48;;;;;;;5.35;2.12;;;;;;;23.44;47.58;100496.80;1842965;75;21024;-54
2022/08/31 08:24:15;;;;;;;4.53;1.70;;;;;;;23.47;47.87;100487.49;1828300;76;21071;-58
2022/08/31 08:27:01;;;;;;;4.67;1.90;;;;;;;23.55;47.44;100480.09;1840525;77;21001;-55
2022/08/31 08:29:41;;;;;;;4.75;2.55;;;;;;;23.63;47.44;100479.56;1794063;77;21067;-55
2022/08/31 08:32:09;;;;;;;5.97;2.22;;;;;;;23.68;46.90;100489.17;1826441;77;21353;-54
2022/08/31 08:34:42;;;;;;;8.63;2.40;;;;;;;23.70;47.33;100485.75;1830114;76;21323;-55
2022/08/31 08:37:10;;;;;;;3.70;1.70;;;;;;;23.71;47.96;100487.42;1807274;76;21038;-57
2022/08/31 08:39:39;;;;;;;5.75;1.57;;;;;;;23.73;48.04;100480.79;1823352;76;21039;-55
2022/08/31 08:42:12;;;;;;;3.50;1.17;;;;;;;23.81;47.36;100487.01;1829922;76;21051;-55
2022/08/31 08:44:39;;;;;;;3.58;1.15;;;;;;;23.82;46.91;100481.95;1828862;76;21152;-55
2022/08/31 08:47:14;;;;;;;3.75;1.50;;;;;;;23.80;46.93;100479.97;1848215;76;21047;-55
2022/08/31 08:49:49;;;;;;;7.42;2.20;;;;;;;23.78;47.69;100483.39;1843569;76;21009;-55
2022/08/31 08:52:40;;;;;;;5.60;1.80;;;;;;;23.64;48.41;100475.86;1852653;76;21097;-54
2022/08/31 08:55:15;;;;;;;5.28;2.00;;;;;;;23.56;48.75;100475.01;1828905;76;21034;-54
2022/08/31 08:57:43;;;;;;;4.10;1.72;;;;;;;23.58;48.58;100476.67;1851116;76;22430;-54
2022/08/31 09:00:18;;;;;;;5.00;1.87;;;;;;;23.63;48.13;100471.50;1853813;76;21765;-54
2022/08/31 09:02:59;;;;;;;4.12;1.45;;;;;;;23.70;48.05;100475.86;1845165;76;21040;-54
2022/08/31 09:06:11;;;;;;;6.42;2.00;;;;;;;23.83;48.05;100468.31;1834612;76;21072;-54
2022/08/31 09:09:16;;;;;;;6.72;1.90;;;;;;;24.02;47.99;100467.16;1827902;76;21059;-54
2022/08/31 09:12:32;;;;;;;3.37;1.20;;;;;;;24.20;47.35;100461.95;1833248;77;21638;-55
2022/08/31 09:15:37;;;;;;;4.40;1.10;;;;;;;24.27;45.38;100470.00;1826167;77;21015;-56
2022/08/31 09:18:11;;;;;;;3.58;1.35;;;;;;;24.21;45.34;100473.02;1835377;77;21077;-54
2022/08/31 09:20:40;;;;;;;3.05;1.05;;;;;;;24.09;45.52;100474.68;1830700;77;21020;-55
2022/08/31 09:23:07;;;;;;;7.25;1.47;;;;;;;23.99;45.98;100473.79;1824983;77;21024;-54
2022/08/31 09:25:50;;;;;;;3.42;1.10;;;;;;;23.88;46.69;100475.77;1825712;76;21574;-55
2022/08/31 09:28:35;;;;;;;4.20;1.40;;;;;;;23.79;47.26;100478.30;1798713;77;21003;-54
2022/08/31 09:31:01;;;;;;;4.08;1.42;;;;;;;23.78;47.37;100473.46;1833157;77;21095;-54
2022/08/31 09:33:31;;;;;;;5.28;1.72;;;;;;;23.90;48.26;100481.75;1830152;77;21078;-54
2022/08/31 09:36:18;;;;;;;3.10;1.20;;;;;;;24.01;47.37;100473.06;1829675;76;21048;-54
2022/08/31 09:38:45;;;;;;;4.30;1.87;;;;;;;24.14;47.00;100472.22;1827408;76;22500;-54
2022/08/31 09:41:31;;;;;;;3.05;1.37;;;;;;;24.26;46.49;100449.54;1831842;76;21029;-54
2022/08/31 09:44:33;;;;;;;4.03;1.72;;;;;;;24.37;46.26;100454.24;1834140;76;21113;-55
2022/08/31 09:47:04;;;;;;;4.30;1.50;;;;;;;24.43;45.54;100462.00;1834598;76;21033;-54
2022/08/31 09:49:36;;;;;;;5.15;1.70;;;;;;;24.38;46.02;100459.12;1832636;77;21034;-54
2022/08/31 09:55:13;;;;;;;4.85;1.10;;;;;;;24.30;45.68;100455.61;1832060;77;21029;-54
2022/08/31 09:57:52;;;;;;;2.98;1.15;;;;;;;24.32;44.41;100455.40;1831531;76;20982;-55
2022/08/31 10:00:30;;;;;;;4.28;1.00;;;;;;;24.36;44.21;100450.41;1794639;79;21037;-55
2022/08/31 10:03:07;;;;;;;3.30;1.45;;;;;;;24.42;44.75;100445.55;1807660;77;21508;-55
2022/08/31 10:05:45;;;;;;;4.30;1.42;;;;;;;24.52;44.88;100447.26;1776393;79;21177;-58
2022/08/31 10:08:10;;;;;;;3.83;1.30;;;;;;;24.56;45.15;100444.99;1800119;78;21078;-57
2022/08/31 10:10:39;;;;;;;5.25;1.65;;;;;;;24.63;44.18;100441.25;1811305;77;21076;-57
2022/08/31 10:13:20;;;;;;;6.60;1.95;;;;;;;24.71;44.72;100440.69;1796077;78;21033;-58
2022/08/31 10:16:02;;;;;;;4.08;1.57;;;;;;;24.75;44.91;100440.58;1794046;78;21065;-56
2022/08/31 10:18:38;;;;;;;3.98;1.37;;;;;;;24.70;44.14;100453.86;1783329;78;21251;-58
2022/08/31 10:21:13;;;;;;;4.03;1.42;;;;;;;24.62;43.53;100450.34;1806565;77;21034;-59
2022/08/31 10:23:52;;;;;;;3.25;1.22;;;;;;;24.59;43.51;100449.42;1792073;78;21018;-59
2022/08/31 10:26:19;;;;;;;3.70;1.32;;;;;;;24.63;43.67;100447.97;1771180;78;21117;-59
2022/08/31 10:28:49;;;;;;;4.00;1.75;;;;;;;24.76;44.05;100443.56;1791740;78;21598;-58
2022/08/31 10:31:30;;;;;;;8.30;1.72;;;;;;;24.88;44.16;100438.31;1787375;78;21286;-58
2022/08/31 10:36:58;;;;;;;4.10;1.85;;;;;;;24.90;44.77;100437.58;1799146;78;21081;-57
2022/08/31 10:39:45;;;;;;;5.58;1.75;;;;;;;24.85;44.24;100440.41;1788564;78;21024;-57
2022/08/31 10:42:25;;;;;;;4.92;1.80;;;;;;;24.87;44.57;100440.19;1789273;79;21018;-57
2022/08/31 10:44:56;;;;;;;3.90;1.50;;;;;;;24.94;44.29;100433.42;1793258;78;21256;-55
2022/08/31 10:47:28;;;;;;;4.30;1.82;;;;;;;25.06;43.59;100445.67;1798728;78;21717;-57
2022/08/31 10:49:55;;;;;;;3.90;1.60;;;;;;;25.14;43.14;100434.11;1797323;78;21033;-57
2022/08/31 10:52:31;;;;;;;4.55;1.55;;;;;;;25.18;43.17;100428.61;1801582;78;21138;-57
2022/08/31 10:55:31;;;;;;;3.87;1.92;;;;;;;25.21;43.36;100423.30;1793257;78;21078;-57
2022/08/31 10:58:18;;;;;;;5.35;2.12;;;;;;;25.27;42.68;100430.55;1791678;78;21187;-57
2022/08/31 11:01:06;;;;;;;4.05;1.60;;;;;;;25.25;42.59;100427.22;1797316;78;21179;-56
2022/08/31 11:04:17;;;;;;;3.90;1.75;;;;;;;25.20;43.28;100419.79;1758311;78;21028;-58
2022/08/31 11:07:23;;;;;;;3.85;1.50;;;;;;;25.18;42.95;100423.73;1788048;78;21087;-56
2022/08/31 11:10:13;;;;;;;3.67;1.70;;;;;;;25.17;43.23;100420.75;1792089;78;21075;-55
2022/08/31 11:12:43;;;;;;;3.17;1.40;;;;;;;25.17;41.72;100421.56;1753571;78;21185;-55
2022/08/31 11:15:42;;;;;;;3.75;1.40;;;;;;;25.25;41.68;100414.25;1794914;78;21067;-54
2022/08/31 11:18:34;;;;;;;4.20;1.50;;;;;;;25.38;40.35;100405.57;1802222;78;21022;-56
2022/08/31 11:21:20;;;;;;;3.47;1.30;;;;;;;25.49;40.71;100404.58;1794908;78;21954;-55
2022/08/31 11:24:07;;;;;;;6.83;1.77;;;;;;;25.55;41.34;100415.80;1792401;78;21021;-55
2022/08/31 11:27:10;;;;;;;3.90;1.40;;;;;;;25.58;41.28;100408.62;1787376;78;21207;-55
2022/08/31 11:30:00;;;;;;;3.45;1.30;;;;;;;25.59;38.92;100410.28;1781903;78;21013;-55
2022/08/31 11:32:33;;;;;;;3.58;1.40;;;;;;;25.62;38.14;100403.61;1782335;78;21017;-55
2022/08/31 11:35:08;;;;;;;4.20;1.37;;;;;;;25.66;38.25;100402.95;1792557;78;21021;-55
2022/08/31 11:37:54;;;;;;;4.22;1.40;;;;;;;25.74;39.43;100405.36;1791041;78;21086;-55
2022/08/31 11:40:42;;;;;;;4.15;1.50;;;;;;;25.83;39.71;100398.34;1789094;78;21887;-55
2022/08/31 11:43:34;;;;;;;4.08;1.62;;;;;;;25.84;39.91;100399.97;1790833;78;21059;-55
2022/08/31 11:46:27;;;;;;;4.15;1.95;;;;;;;25.85;40.68;100393.02;1786122;78;20978;-57
2022/08/31 11:48:56;;;;;;;4.62;2.00;;;;;;;25.82;40.30;100398.03;1789967;78;21053;-55
2022/08/31 11:51:44;;;;;;;4.40;2.02;;;;;;;25.71;40.36;100404.98;1793980;78;21061;-56
2022/08/31 11:54:25;;;;;;;7.17;1.87;;;;;;;25.57;41.34;100406.97;1784582;78;21239;-55
2022/08/31 11:56:55;;;;;;;7.30;2.27;;;;;;;25.47;41.77;100400.75;1791562;78;21894;-56
2022/08/31 11:59:32;;;;;;;7.22;2.35;;;;;;;25.43;43.44;100405.45;1791144;78;21020;-57
2022/08/31 12:02:21;;;;;;;4.92;2.30;;;;;;;25.38;45.10;100404.22;1792934;78;21100;-55
2022/08/31 12:04:59;;;;;;;4.62;2.33;;;;;;;25.33;45.62;100397.86;1777392;78;21571;-56
2022/08/31 12:07:43;;;;;;;6.33;2.77;;;;;;;25.25;45.83;100393.56;1794662;78;21298;-57
2022/08/31 12:10:25;;;;;;;7.77;2.67;;;;;;;25.22;46.25;100387.27;1785589;78;21861;-57